Terminal Aerodrome Forecast
Issued by NWS

Home | Current Version | Previous Version | Text Only | Print | Product List | Glossary On
Versions: 1 2 3 4 5 6 7 8 9 10 11 12 13 14 15 16 17 18
000
FTUS41 KGYX 040520
TAFHIE
TAF
KHIE 040520Z 0406/0506 00000KT P6SM BKN100
     FM041700 23009G16KT P6SM BKN250
     FM042200 24007KT P6SM BKN250
     FM050400 27004KT P6SM OVC050=

USA.gov is the U.S. government's official web portal to all federal, state and local government web resources and services.